Time;durP1;ratioP1;P1;durP2;ratioP2;P2;SDS_P1;SDS_P2;PMS_P1;PMS_P2;Temp;Humidity;BMP_temperature;BMP_pressure;BME280_temperature;BME280_humidity;BME280_pressure;Samples;Min_cycle;Max_cycle;Signal;HPM_P1;HPM_P2
2022/10/02 00:02:25;;;;;;;9.77;2.70;;;;;;;18.24;71.34;101360.31;6276506;22;20018;-62
2022/10/02 00:05:08;;;;;;;12.18;2.78;;;;;;;18.33;71.62;101361.00;6251096;22;20020;-62
2022/10/02 00:07:43;;;;;;;9.02;2.72;;;;;;;18.34;71.49;101368.19;6223596;22;20478;-62
2022/10/02 00:10:50;;;;;;;9.30;2.50;;;;;;;18.32;71.42;101369.72;6251335;22;20030;-62
2022/10/02 00:13:37;;;;;;;11.60;2.47;;;;;;;18.15;72.50;101367.19;6272143;22;20031;-64
2022/10/02 00:16:09;;;;;;;11.75;2.80;;;;;;;18.24;72.37;101359.47;6276284;22;20367;-65
2022/10/02 00:18:37;;;;;;;8.65;2.53;;;;;;;18.27;72.55;101376.34;6251922;22;20026;-65
2022/10/02 00:21:36;;;;;;;10.23;2.78;;;;;;;18.29;72.36;101382.38;6252804;22;20350;-64
2022/10/02 00:24:12;;;;;;;10.68;2.60;;;;;;;18.15;72.87;101373.53;6225106;22;20020;-64
2022/10/02 00:26:47;;;;;;;9.88;2.42;;;;;;;18.46;71.87;101370.22;6252483;22;20015;-64
2022/10/02 00:29:20;;;;;;;9.98;2.22;;;;;;;18.31;72.51;101368.91;6251676;22;20016;-64
2022/10/02 00:31:57;;;;;;;7.60;2.40;;;;;;;18.25;72.81;101369.50;6252803;22;20018;-64
2022/10/02 00:34:39;;;;;;;12.32;2.70;;;;;;;18.43;72.58;101363.34;6278712;22;20427;-64
2022/10/02 00:37:26;;;;;;;13.30;2.28;;;;;;;18.51;72.28;101361.59;6252473;22;20020;-65
2022/10/02 00:40:24;;;;;;;10.02;2.85;;;;;;;18.30;73.38;101363.69;6279177;22;20020;-65
2022/10/02 00:43:18;;;;;;;7.75;2.38;;;;;;;18.26;73.26;101371.09;6249867;22;20020;-65
2022/10/02 00:46:30;;;;;;;11.35;2.60;;;;;;;18.23;73.29;101375.44;6279856;22;20022;-65
2022/10/02 00:49:15;;;;;;;13.35;2.70;;;;;;;18.34;73.25;101372.97;6159457;23;20476;-64
2022/10/02 00:52:04;;;;;;;7.93;2.25;;;;;;;17.97;75.00;101374.94;6185393;23;20417;-65
2022/10/02 00:55:09;;;;;;;9.30;2.47;;;;;;;17.91;75.91;101391.09;6254183;22;20039;-65
2022/10/02 00:57:49;;;;;;;14.15;3.13;;;;;;;17.88;76.33;101389.00;6279345;22;20464;-64
2022/10/02 01:00:17;;;;;;;7.55;2.47;;;;;;;18.04;75.99;101385.53;6249504;22;20024;-65
2022/10/02 01:02:57;;;;;;;8.85;2.05;;;;;;;18.12;75.70;101387.38;6279484;22;20008;-65
2022/10/02 01:05:26;;;;;;;9.52;2.67;;;;;;;17.98;76.35;101391.31;6278059;22;20022;-65
2022/10/02 01:07:54;;;;;;;13.48;2.92;;;;;;;18.14;76.44;101391.44;6279008;22;20035;-65
2022/10/02 01:10:24;;;;;;;14.43;3.28;;;;;;;18.27;75.50;101379.13;6225661;22;20046;-65
2022/10/02 01:12:53;;;;;;;10.70;2.40;;;;;;;18.21;76.34;101386.09;6226249;22;20012;-64
2022/10/02 01:15:26;;;;;;;8.68;2.47;;;;;;;17.98;77.92;101380.19;6278122;22;20012;-65
2022/10/02 01:17:54;;;;;;;8.77;2.53;;;;;;;18.03;77.77;101373.53;6227904;22;20019;-65
2022/10/02 01:20:40;;;;;;;10.20;2.67;;;;;;;18.02;78.69;101368.31;6277328;22;20015;-65
2022/10/02 01:23:14;;;;;;;10.65;2.83;;;;;;;17.87;79.48;101367.84;6252206;22;20019;-64
2022/10/02 01:25:41;;;;;;;9.98;2.35;;;;;;;17.84;80.55;101374.13;6250663;22;20027;-65
2022/10/02 01:28:10;;;;;;;9.68;2.55;;;;;;;17.92;79.92;101370.41;6279365;22;20016;-65
2022/10/02 01:30:40;;;;;;;6.85;2.30;;;;;;;17.98;80.20;101371.81;6225831;22;20031;-65
2022/10/02 01:33:08;;;;;;;10.13;2.30;;;;;;;17.89;81.43;101373.88;6252315;22;20023;-65
2022/10/02 01:35:38;;;;;;;9.50;2.33;;;;;;;17.85;81.92;101372.94;6226073;22;20035;-64
2022/10/02 01:38:07;;;;;;;6.18;2.00;;;;;;;17.67;83.51;101371.53;6250480;22;20030;-63
2022/10/02 01:40:37;;;;;;;8.60;2.40;;;;;;;17.68;84.36;101361.19;6249354;22;20020;-65
2022/10/02 01:43:10;;;;;;;12.98;2.70;;;;;;;17.80;83.99;101369.59;6251814;22;20369;-64
2022/10/02 01:45:52;;;;;;;9.55;2.50;;;;;;;17.64;85.47;101360.25;6277276;22;20027;-65
2022/10/02 01:48:45;;;;;;;8.02;2.08;;;;;;;17.74;84.92;101362.59;6278861;22;20015;-65
2022/10/02 01:51:50;;;;;;;7.18;2.00;;;;;;;17.83;83.53;101357.75;6230449;22;20416;-64
2022/10/02 01:54:25;;;;;;;10.73;2.53;;;;;;;17.72;84.77;101357.38;6278885;22;20494;-65
2022/10/02 01:57:05;;;;;;;9.98;2.13;;;;;;;17.74;84.51;101355.06;6249694;22;20023;-65
2022/10/02 01:59:35;;;;;;;;;;;;;;;17.72;85.49;101354.59;6251623;22;20027;-64
2022/10/02 02:02:38;;;;;;;10.68;1.98;;;;;;;17.83;84.29;101353.00;6249540;22;19919;-64
2022/10/02 02:05:28;;;;;;;7.68;1.92;;;;;;;17.87;83.53;101361.44;6257934;22;20455;-64
2022/10/02 02:08:30;;;;;;;8.02;1.98;;;;;;;17.78;83.92;101364.34;6277168;22;20043;-65
2022/10/02 02:11:18;;;;;;;6.82;2.10;;;;;;;17.83;83.58;101355.78;6250946;22;20015;-65
2022/10/02 02:13:57;;;;;;;10.32;2.35;;;;;;;17.88;83.69;101354.72;6251135;22;20127;-65
2022/10/02 02:16:42;;;;;;;7.50;2.10;;;;;;;17.83;85.08;101341.84;6276587;22;20440;-64
2022/10/02 02:19:21;;;;;;;9.18;2.00;;;;;;;17.71;85.87;101339.00;6251755;22;20016;-65
2022/10/02 02:21:55;;;;;;;10.88;2.15;;;;;;;17.68;87.55;101338.88;6250636;22;20016;-64
2022/10/02 02:24:45;;;;;;;6.03;1.60;;;;;;;17.63;88.03;101341.91;6250698;22;20031;-65
2022/10/02 02:27:16;;;;;;;6.05;1.73;;;;;;;17.62;87.66;101334.72;6277558;22;20027;-64
2022/10/02 02:29:47;;;;;;;6.70;2.03;;;;;;;17.63;87.85;101337.16;6251109;22;20015;-64
2022/10/02 02:32:18;;;;;;;6.95;2.08;;;;;;;17.58;89.42;101333.78;6250771;22;20022;-64
2022/10/02 02:34:49;;;;;;;6.70;1.67;;;;;;;17.63;88.31;101331.59;6250014;22;20038;-64
2022/10/02 02:37:20;;;;;;;7.60;2.22;;;;;;;17.59;89.55;101324.28;6276768;22;20636;-64
2022/10/02 02:39:58;;;;;;;;;;;;;;;17.64;88.61;101324.84;6251220;22;20032;-64
2022/10/02 02:42:29;;;;;;;5.22;1.80;;;;;;;17.57;90.18;101326.59;6277980;22;20013;-64
2022/10/02 02:45:01;;;;;;;7.43;2.03;;;;;;;17.62;89.40;101329.16;6277278;22;20026;-64
2022/10/02 02:47:53;;;;;;;7.68;1.90;;;;;;;17.64;89.46;101315.69;6251136;22;20016;-65
2022/10/02 02:50:32;;;;;;;7.22;2.20;;;;;;;17.71;89.12;101321.50;6249672;22;20016;-64
2022/10/02 02:53:04;;;;;;;6.97;1.92;;;;;;;17.66;90.33;101313.38;6277784;22;20023;-65
2022/10/02 02:55:36;;;;;;;5.65;1.70;;;;;;;17.72;88.37;101321.16;6250032;22;20027;-65
2022/10/02 02:58:26;;;;;;;8.25;2.20;;;;;;;17.63;89.46;101314.03;6278647;22;20026;-65
2022/10/02 03:00:54;;;;;;;7.28;2.10;;;;;;;17.62;89.97;101304.91;6276009;22;20026;-64
2022/10/02 03:03:21;;;;;;;7.15;2.17;;;;;;;17.78;88.75;101310.59;6251914;22;20019;-65
2022/10/02 03:05:54;;;;;;;8.38;1.92;;;;;;;17.75;89.52;101308.47;6223963;22;20016;-64
2022/10/02 03:08:31;;;;;;;8.15;1.98;;;;;;;17.83;88.29;101297.25;6226600;22;20012;-64
2022/10/02 03:11:20;;;;;;;7.38;1.52;;;;;;;17.87;87.82;101294.56;6249398;22;20018;-65
2022/10/02 03:14:11;;;;;;;14.30;2.20;;;;;;;17.89;87.66;101295.84;6278359;22;20019;-64
2022/10/02 03:16:58;;;;;;;4.97;1.48;;;;;;;17.91;87.96;101304.69;6249660;22;20026;-64
2022/10/02 03:19:52;;;;;;;4.13;1.48;;;;;;;17.96;86.43;101301.66;6278582;22;20014;-65
2022/10/02 03:22:40;;;;;;;4.03;1.50;;;;;;;18.07;85.28;101302.00;6223705;22;20015;-63
2022/10/02 03:25:43;;;;;;;6.03;1.63;;;;;;;18.13;85.47;101297.00;6277333;22;20019;-65
2022/10/02 03:28:28;;;;;;;4.35;1.58;;;;;;;18.18;84.90;101286.44;6169886;22;20031;-64
2022/10/02 03:31:17;;;;;;;2.78;1.13;;;;;;;18.18;86.29;101292.00;6276331;22;20020;-65
2022/10/02 03:33:45;;;;;;;6.22;1.63;;;;;;;18.26;84.63;101285.47;6225614;22;20344;-64
2022/10/02 03:36:15;;;;;;;3.60;1.35;;;;;;;18.23;84.48;101288.97;6249104;22;20423;-65
2022/10/02 03:38:42;;;;;;;4.88;1.45;;;;;;;18.28;84.94;101282.31;6224935;22;20024;-64
2022/10/02 03:41:10;;;;;;;5.47;1.40;;;;;;;18.49;83.82;101283.00;6197914;22;20020;-65
2022/10/02 03:43:37;;;;;;;5.95;1.30;;;;;;;18.38;82.95;101290.22;6249539;22;20011;-64
2022/10/02 03:46:05;;;;;;;4.63;1.40;;;;;;;18.38;82.87;101293.81;6249823;22;20023;-63
2022/10/02 03:48:32;;;;;;;3.63;1.30;;;;;;;18.30;84.73;101285.59;6250012;22;20027;-63
2022/10/02 03:50:59;;;;;;;5.20;1.30;;;;;;;18.30;85.00;101289.19;6277318;22;20015;-64
2022/10/02 03:53:34;;;;;;;3.28;1.20;;;;;;;18.28;85.71;101297.09;6278495;22;20016;-64
2022/10/02 03:56:25;;;;;;;2.40;1.10;;;;;;;18.32;85.54;101295.25;6226271;22;20016;-66
2022/10/02 03:58:54;;;;;;;4.90;1.17;;;;;;;18.39;83.96;101283.47;6289013;22;20027;-65
2022/10/02 04:01:27;;;;;;;4.45;1.33;;;;;;;18.41;83.59;101281.97;6279491;22;20023;-64
2022/10/02 04:03:58;;;;;;;4.50;1.33;;;;;;;18.45;84.28;101279.28;6251785;22;20012;-64
2022/10/02 04:06:47;;;;;;;4.32;1.05;;;;;;;18.35;84.85;101285.34;6278978;22;20020;-65
2022/10/02 04:09:29;;;;;;;4.35;1.10;;;;;;;18.44;84.81;101295.25;6225743;22;20043;-65
2022/10/02 04:12:26;;;;;;;3.03;1.08;;;;;;;18.46;83.89;101287.31;6279153;22;20016;-64
2022/10/02 04:15:07;;;;;;;3.97;1.40;;;;;;;18.34;84.66;101290.09;6251249;22;20324;-64
2022/10/02 04:17:43;;;;;;;3.17;0.90;;;;;;;18.38;84.35;101291.03;6252948;22;20034;-64
2022/10/02 04:20:19;;;;;;;1.65;0.80;;;;;;;18.36;85.67;101286.97;6251304;22;20019;-65
2022/10/02 04:22:52;;;;;;;3.92;1.23;;;;;;;18.70;84.86;101298.44;6252991;22;20026;-64
2022/10/02 04:25:22;;;;;;;3.42;1.05;;;;;;;18.50;83.45;101290.22;6250804;22;20016;-64
2022/10/02 04:27:54;;;;;;;1.85;1.00;;;;;;;18.48;83.93;101303.72;6226349;22;20020;-64
2022/10/02 04:30:22;;;;;;;2.00;0.80;;;;;;;18.50;83.65;101284.63;6224521;22;20022;-65
2022/10/02 04:32:50;;;;;;;1.63;0.80;;;;;;;18.53;83.32;101286.72;6278594;22;20023;-65
2022/10/02 04:35:28;;;;;;;4.72;0.95;;;;;;;18.44;84.14;101295.25;6249432;22;20345;-64
2022/10/02 04:38:01;;;;;;;1.58;0.63;;;;;;;18.30;85.58;101289.19;6279265;22;20020;-64
2022/10/02 04:40:59;;;;;;;3.47;0.90;;;;;;;18.35;84.21;101293.72;6277446;22;20024;-66
2022/10/02 04:43:35;;;;;;;1.58;0.70;;;;;;;18.27;87.46;101303.03;6278325;22;20019;-64
2022/10/02 04:46:22;;;;;;;3.05;0.65;;;;;;;18.56;85.58;101303.59;6277908;22;20016;-65
2022/10/02 04:49:17;;;;;;;0.90;0.40;;;;;;;18.45;83.92;101301.63;6252069;22;20020;-65
2022/10/02 04:52:17;;;;;;;0.80;0.57;;;;;;;18.35;84.30;101300.09;6277793;22;20106;-65
2022/10/02 04:55:06;;;;;;;2.65;0.57;;;;;;;18.36;84.82;101301.72;6279475;22;20023;-65
2022/10/02 04:57:43;;;;;;;2.70;0.63;;;;;;;18.43;84.18;101307.56;6252576;22;20011;-65
2022/10/02 05:00:13;;;;;;;1.75;0.60;;;;;;;18.72;83.68;101301.69;6279239;22;20022;-64
2022/10/02 05:02:52;;;;;;;2.05;0.80;;;;;;;18.44;84.58;101305.59;6251044;22;20026;-64
2022/10/02 05:05:34;;;;;;;1.73;0.70;;;;;;;18.43;84.66;101304.75;6278492;22;20016;-65
2022/10/02 05:08:08;;;;;;;0.82;0.50;;;;;;;18.57;84.61;101319.16;6279321;22;20020;-65
2022/10/02 05:10:58;;;;;;;1.13;0.70;;;;;;;18.34;84.62;101311.63;6277558;22;20024;-65
2022/10/02 05:13:28;;;;;;;0.93;0.50;;;;;;;18.38;84.29;101313.34;6252757;22;20428;-65
2022/10/02 05:16:20;;;;;;;2.33;0.93;;;;;;;18.38;83.86;101310.56;6278437;22;20467;-65
2022/10/02 05:19:23;;;;;;;1.95;0.60;;;;;;;18.34;84.32;101309.63;6279453;22;20025;-64
2022/10/02 05:22:13;;;;;;;3.25;0.75;;;;;;;18.39;84.01;101320.56;6276719;22;20026;-65
2022/10/02 05:24:54;;;;;;;1.65;0.80;;;;;;;18.37;83.75;101310.91;6277299;22;20451;-65
2022/10/02 05:27:49;;;;;;;3.10;0.85;;;;;;;18.30;83.58;101317.09;6250551;22;20016;-65
2022/10/02 05:30:17;;;;;;;0.80;0.60;;;;;;;18.30;83.72;101317.09;6250597;22;20022;-65
2022/10/02 05:33:03;;;;;;;1.33;0.55;;;;;;;18.22;85.13;101318.00;6277897;22;20115;-64
2022/10/02 05:36:07;;;;;;;2.58;0.57;;;;;;;18.24;84.22;101310.09;6277772;22;20099;-64
2022/10/02 05:39:12;;;;;;;3.28;0.60;;;;;;;18.22;84.13;101320.00;6277829;22;20015;-64
2022/10/02 05:42:01;;;;;;;1.83;0.60;;;;;;;18.21;83.73;101321.97;6278879;22;20019;-65
2022/10/02 05:45:08;;;;;;;3.00;0.60;;;;;;;18.19;83.63;101323.47;6249842;22;20012;-65
2022/10/02 05:47:40;;;;;;;3.60;0.98;;;;;;;18.12;84.46;101320.44;6235870;22;20020;-65
2022/10/02 05:50:15;;;;;;;3.10;0.82;;;;;;;18.11;84.42;101330.81;6250367;22;20015;-65
2022/10/02 05:52:52;;;;;;;1.90;0.70;;;;;;;18.12;83.82;101331.59;6261497;22;20027;-64
2022/10/02 05:55:38;;;;;;;1.30;0.70;;;;;;;18.15;84.05;101340.09;6278027;22;20030;-65
2022/10/02 05:58:19;;;;;;;2.05;0.70;;;;;;;18.10;84.09;101345.09;6250804;22;20051;-64
2022/10/02 06:00:51;;;;;;;2.67;0.63;;;;;;;18.12;84.17;101354.72;6251944;22;20463;-64
2022/10/02 06:03:25;;;;;;;6.10;0.82;;;;;;;18.04;85.29;101354.84;6277952;22;20030;-65
2022/10/02 06:05:59;;;;;;;2.88;0.70;;;;;;;18.00;85.26;101349.16;6250481;22;20401;-65
2022/10/02 06:08:34;;;;;;;3.78;0.80;;;;;;;17.98;86.23;101355.09;6278883;22;20019;-65
2022/10/02 06:11:13;;;;;;;3.53;0.80;;;;;;;18.08;84.83;101353.78;6251559;22;20027;-65
2022/10/02 06:13:45;;;;;;;3.97;1.05;;;;;;;18.09;85.25;101349.03;6250986;22;20019;-65
2022/10/02 06:16:21;;;;;;;2.78;1.05;;;;;;;18.11;84.81;101355.09;6250802;22;20019;-65
2022/10/02 06:18:56;;;;;;;2.30;0.80;;;;;;;18.11;84.76;101349.50;6251434;22;20026;-65
2022/10/02 06:21:30;;;;;;;2.22;0.90;;;;;;;18.14;84.95;101351.59;6251737;22;20340;-65
2022/10/02 06:23:59;;;;;;;1.83;0.68;;;;;;;18.10;85.35;101337.53;6251896;22;20016;-65
2022/10/02 06:26:41;;;;;;;5.72;1.83;;;;;;;18.06;85.70;101346.97;6277394;22;20019;-65
2022/10/02 06:29:13;;;;;;;2.92;0.98;;;;;;;18.11;84.52;101343.94;6251534;22;20019;-64
2022/10/02 06:31:52;;;;;;;3.33;1.13;;;;;;;18.15;84.91;101342.09;6252749;22;20015;-65
2022/10/02 06:34:19;;;;;;;5.68;1.60;;;;;;;18.21;84.64;101335.91;6251582;22;20018;-65
2022/10/02 06:36:56;;;;;;;8.15;3.53;;;;;;;18.13;84.98;101344.41;6278181;22;20023;-65
2022/10/02 06:39:31;;;;;;;4.43;1.55;;;;;;;18.20;84.52;101336.25;6251996;22;20019;-65
2022/10/02 06:42:07;;;;;;;3.20;1.13;;;;;;;18.30;83.78;101347.75;6224140;22;20019;-64
2022/10/02 06:44:46;;;;;;;4.65;1.10;;;;;;;18.37;83.69;101344.38;6278483;22;20019;-65
2022/10/02 06:47:33;;;;;;;5.57;0.85;;;;;;;18.41;83.91;101348.94;6278518;22;20019;-65
2022/10/02 06:50:22;;;;;;;4.13;0.90;;;;;;;18.42;83.21;101345.00;6278454;22;20023;-66
2022/10/02 06:53:11;;;;;;;2.17;0.80;;;;;;;18.53;83.73;101345.31;6249636;22;20024;-65
2022/10/02 06:56:10;;;;;;;4.20;1.00;;;;;;;18.54;82.85;101344.97;6277864;22;20356;-64
2022/10/02 06:58:51;;;;;;;5.03;2.50;;;;;;;18.58;83.22;101350.66;6276729;22;20023;-63
2022/10/02 07:01:36;;;;;;;4.95;2.20;;;;;;;18.51;83.60;101344.84;6251445;22;20117;-65
2022/10/02 07:04:25;;;;;;;3.05;1.02;;;;;;;18.64;83.16;101352.03;6225722;22;20026;-65
2022/10/02 07:06:57;;;;;;;7.78;3.90;;;;;;;18.72;82.96;101357.50;6277793;22;20015;-64
2022/10/02 07:09:49;;;;;;;6.05;1.95;;;;;;;18.71;82.10;101343.88;6278503;22;20026;-64
2022/10/02 07:12:37;;;;;;;5.97;2.60;;;;;;;18.66;83.17;101344.94;6277041;22;20030;-64
2022/10/02 07:15:24;;;;;;;6.72;2.10;;;;;;;18.69;83.43;101347.03;6250898;22;20038;-65
2022/10/02 07:17:59;;;;;;;3.58;1.15;;;;;;;18.67;83.85;101345.75;6278065;22;20020;-65
2022/10/02 07:20:39;;;;;;;4.20;0.90;;;;;;;18.52;85.13;101340.88;6249751;22;20019;-65
2022/10/02 07:23:13;;;;;;;3.72;0.80;;;;;;;18.73;84.01;101336.78;6276901;22;20020;-64
2022/10/02 07:25:47;;;;;;;3.35;1.27;;;;;;;18.62;84.44;101351.59;6250814;22;20008;-66
2022/10/02 07:28:33;;;;;;;3.58;0.90;;;;;;;18.72;84.01;101345.50;6249379;22;20016;-65
2022/10/02 07:31:10;;;;;;;5.20;2.10;;;;;;;18.75;84.17;101342.84;6277705;22;20016;-66
2022/10/02 07:33:57;;;;;;;4.60;1.05;;;;;;;18.92;84.69;101352.88;6248263;22;20034;-68
2022/10/02 07:36:31;;;;;;;4.43;1.05;;;;;;;18.90;83.96;101360.78;6247496;22;20026;-68
2022/10/02 07:39:05;;;;;;;3.08;0.95;;;;;;;18.65;83.96;101362.03;6250960;22;20015;-67
2022/10/02 07:41:42;;;;;;;3.13;0.85;;;;;;;18.80;83.35;101352.94;6276392;22;20016;-65
2022/10/02 07:44:43;;;;;;;3.35;0.73;;;;;;;19.00;83.25;101352.72;6276089;22;20015;-66
2022/10/02 07:47:43;;;;;;;4.63;0.98;;;;;;;18.71;82.86;101355.84;6254558;22;20016;-64
2022/10/02 07:50:24;;;;;;;6.95;1.17;;;;;;;18.74;83.50;101349.56;6248877;22;20457;-64
2022/10/02 07:53:08;;;;;;;5.43;1.27;;;;;;;18.98;82.11;101354.28;6250300;22;20015;-64
2022/10/02 07:55:40;;;;;;;8.55;1.40;;;;;;;19.00;81.40;101354.72;6276231;22;20015;-66
2022/10/02 07:58:11;;;;;;;7.10;1.58;;;;;;;18.78;82.32;101364.44;6224887;22;20019;-67
2022/10/02 08:00:51;;;;;;;5.43;1.63;;;;;;;18.93;82.01;101371.28;6276922;22;20023;-66
2022/10/02 08:03:25;;;;;;;8.60;1.60;;;;;;;19.04;81.15;101373.22;6249217;22;20028;-65
2022/10/02 08:05:55;;;;;;;9.27;1.33;;;;;;;19.16;80.37;101375.13;6223507;22;20070;-66
2022/10/02 08:08:54;;;;;;;5.18;1.20;;;;;;;19.05;80.59;101380.44;6244017;22;20511;-68
2022/10/02 08:11:31;;;;;;;8.98;1.73;;;;;;;19.08;80.46;101384.47;6261817;22;20030;-68
2022/10/02 08:14:02;;;;;;;8.23;1.80;;;;;;;18.97;80.77;101378.59;6277854;22;20019;-67
2022/10/02 08:16:34;;;;;;;9.02;1.92;;;;;;;18.85;81.07;101369.41;6250130;22;20016;-69
2022/10/02 08:19:07;;;;;;;7.43;1.60;;;;;;;19.10;80.02;101379.34;6249074;22;20019;-67
2022/10/02 08:21:42;;;;;;;7.85;2.00;;;;;;;19.14;79.45;101374.69;6224913;22;20024;-67
2022/10/02 08:24:21;;;;;;;12.50;2.17;;;;;;;19.06;80.01;101384.00;6251053;22;20020;-67
2022/10/02 08:26:56;;;;;;;6.93;1.65;;;;;;;19.05;80.92;101380.44;6249410;22;20302;-66
2022/10/02 08:29:39;;;;;;;12.60;2.85;;;;;;;19.27;79.93;101395.81;6249064;22;20436;-67
2022/10/02 08:32:10;;;;;;;12.05;1.85;;;;;;;19.30;79.33;101385.91;6277286;22;20026;-67
2022/10/02 08:34:39;;;;;;;7.63;2.05;;;;;;;19.22;80.25;101389.66;6250740;22;20012;-66
2022/10/02 08:37:22;;;;;;;11.30;2.00;;;;;;;19.27;79.62;101376.25;6277091;22;20015;-66
2022/10/02 08:40:24;;;;;;;10.05;2.13;;;;;;;19.19;80.33;101380.03;6279535;22;20450;-66
2022/10/02 08:43:07;;;;;;;10.75;2.42;;;;;;;19.31;79.95;101385.59;6278277;22;20115;-66
2022/10/02 08:46:07;;;;;;;10.48;2.60;;;;;;;19.45;78.92;101390.75;6253721;22;20305;-65
2022/10/02 08:48:48;;;;;;;14.48;2.60;;;;;;;19.56;78.79;101381.50;6279440;22;20043;-64
2022/10/02 08:51:32;;;;;;;13.25;2.35;;;;;;;19.46;78.39;101387.59;6279461;22;20016;-65
2022/10/02 08:54:34;;;;;;;10.13;2.20;;;;;;;19.89;77.35;101384.78;6224145;22;20020;-64
2022/10/02 08:57:40;;;;;;;12.43;2.85;;;;;;;19.71;77.48;101389.09;6275441;22;20016;-65
2022/10/02 09:00:09;;;;;;;11.88;2.70;;;;;;;19.64;77.63;101397.31;6128863;23;20022;-65
2022/10/02 09:02:56;;;;;;;13.00;3.00;;;;;;;19.55;78.50;101402.22;6130230;23;20025;-66
2022/10/02 09:06:03;;;;;;;10.57;2.60;;;;;;;19.94;76.87;101389.31;6233007;22;20019;-65
2022/10/02 09:08:59;;;;;;;16.23;2.58;;;;;;;19.40;78.84;101394.63;6231004;22;20022;-64
2022/10/02 09:11:51;;;;;;;12.60;2.05;;;;;;;19.40;80.17;101394.63;6248058;22;20316;-63
2022/10/02 09:14:37;;;;;;;11.88;4.22;;;;;;;19.49;79.53;101386.88;6276682;22;20023;-69
2022/10/02 09:17:32;;;;;;;13.77;2.20;;;;;;;19.47;79.06;101396.81;6276702;22;20020;-66
2022/10/02 09:20:30;;;;;;;10.85;2.20;;;;;;;19.81;78.93;101398.94;6250224;22;20053;-66
2022/10/02 09:23:26;;;;;;;10.15;2.58;;;;;;;20.23;79.03;101385.25;6279162;22;20023;-67
2022/10/02 09:26:13;;;;;;;10.55;2.20;;;;;;;19.93;78.63;101384.88;6249294;22;20443;-69
2022/10/02 09:29:19;;;;;;;7.00;1.88;;;;;;;19.86;78.36;101384.69;6250871;22;20482;-69
2022/10/02 09:32:06;;;;;;;85.07;25.38;;;;;;;20.01;79.48;101381.91;6277828;22;20333;-68
2022/10/02 09:35:11;;;;;;;30.95;10.63;;;;;;;20.21;78.96;101376.44;6251685;22;20301;-68
2022/10/02 09:38:15;;;;;;;14.23;3.97;;;;;;;20.13;78.02;101383.81;6278761;22;20024;-69
2022/10/02 09:40:47;;;;;;;14.77;3.67;;;;;;;20.10;77.86;101385.31;6249432;22;20360;-66
2022/10/02 09:44:09;;;;;;;10.05;3.03;;;;;;;20.04;77.44;101388.75;6276892;22;20019;-65
2022/10/02 09:46:48;;;;;;;6.53;1.60;;;;;;;20.39;75.41;101380.47;6151969;23;20025;-65
2022/10/02 09:49:56;;;;;;;7.97;2.38;;;;;;;20.46;76.22;101384.25;6263371;22;20019;-65
2022/10/02 09:52:53;;;;;;;15.75;4.70;;;;;;;20.37;76.51;101382.81;6272955;22;20023;-65
2022/10/02 09:55:44;;;;;;;18.77;5.57;;;;;;;20.44;77.79;101383.81;6259595;22;20034;-66
2022/10/02 09:58:30;;;;;;;10.43;2.35;;;;;;;20.01;77.53;101393.09;6249481;22;20027;-66
2022/10/02 10:01:16;;;;;;;21.42;5.85;;;;;;;19.94;78.15;101390.13;6275784;22;20453;-67
2022/10/02 10:04:11;;;;;;;17.02;4.05;;;;;;;20.33;76.79;101388.31;6278150;22;20015;-67
2022/10/02 10:06:57;;;;;;;15.32;2.97;;;;;;;20.40;76.48;101390.50;6223728;22;20023;-66
2022/10/02 10:09:42;;;;;;;6.88;1.65;;;;;;;20.63;75.01;101383.84;6276166;22;20020;-66
2022/10/02 10:12:33;;;;;;;10.68;2.20;;;;;;;20.20;76.56;101394.38;6248340;22;20034;-67
2022/10/02 10:15:21;;;;;;;10.02;2.80;;;;;;;20.41;75.77;101390.13;6247925;22;20024;-68
2022/10/02 10:18:00;;;;;;;17.67;4.43;;;;;;;20.53;76.14;101383.59;6273796;22;20020;-67
2022/10/02 10:20:35;;;;;;;9.43;2.95;;;;;;;20.60;75.56;101386.56;6221761;22;20020;-63
2022/10/02 10:23:21;;;;;;;6.60;2.28;;;;;;;20.42;75.18;101390.91;6275831;22;20436;-64
2022/10/02 10:26:00;;;;;;;7.55;2.22;;;;;;;20.42;75.29;101390.91;6274767;22;20379;-65
2022/10/02 10:28:36;;;;;;;4.18;1.58;;;;;;;20.33;75.78;101395.94;6276248;22;20016;-65
2022/10/02 10:31:16;;;;;;;10.32;2.63;;;;;;;20.42;75.13;101394.53;6275622;22;20026;-67
2022/10/02 10:34:04;;;;;;;10.50;2.85;;;;;;;20.20;76.96;101398.00;6277253;22;20020;-70
2022/10/02 10:39:52;;;;;;;5.60;1.45;;;;;;;20.70;74.03;101388.78;6253559;22;20012;-66
2022/10/02 10:42:23;;;;;;;;;;;;;;;20.63;74.02;101381.06;6249246;22;20444;-69
2022/10/02 10:45:18;;;;;;;5.05;1.70;;;;;;;20.79;73.34;101381.81;6249180;22;19915;-67
2022/10/02 10:48:09;;;;;;;7.38;2.25;;;;;;;20.99;73.77;101377.88;6246537;22;20016;-67
2022/10/02 10:50:49;;;;;;;6.13;1.50;;;;;;;21.15;72.51;101375.84;6250040;22;20016;-66
2022/10/02 10:53:38;;;;;;;8.63;2.42;;;;;;;21.29;71.71;101382.91;6251518;22;20011;-67
2022/10/02 10:56:11;;;;;;;7.32;1.60;;;;;;;20.82;70.97;101383.06;6275881;22;20022;-68
2022/10/02 10:59:05;;;;;;;6.70;1.77;;;;;;;20.99;71.02;101377.88;6277753;22;20019;-70
2022/10/02 11:02:02;;;;;;;8.30;3.10;;;;;;;20.63;71.62;101385.84;6249742;22;20074;-69
2022/10/02 11:04:51;;;;;;;5.85;1.55;;;;;;;20.91;70.65;101387.28;6277094;22;20020;-69
2022/10/02 11:07:51;;;;;;;5.90;2.00;;;;;;;20.97;71.38;101380.22;6276643;22;20018;-69
2022/10/02 11:10:29;;;;;;;10.32;4.00;;;;;;;21.37;70.68;101393.91;6276698;22;20025;-70
2022/10/02 11:13:15;;;;;;;7.63;1.77;;;;;;;21.14;70.32;101384.59;6278152;22;20016;-71
2022/10/02 11:15:55;;;;;;;10.07;2.67;;;;;;;21.25;69.70;101383.63;6276712;22;20020;-67
2022/10/02 11:18:33;;;;;;;7.57;2.45;;;;;;;21.31;70.75;101386.97;6249900;22;20371;-67
2022/10/02 11:21:20;;;;;;;8.32;2.15;;;;;;;21.23;69.75;101376.81;6247661;22;20020;-66
2022/10/02 11:23:47;;;;;;;9.55;2.55;;;;;;;21.32;70.70;101380.19;6223998;22;20019;-65
2022/10/02 11:26:31;;;;;;;9.02;2.55;;;;;;;21.58;69.04;101387.91;6275638;22;20039;-65
2022/10/02 11:29:32;;;;;;;6.82;1.85;;;;;;;21.22;69.66;101387.19;6250565;22;20035;-69
2022/10/02 11:32:13;;;;;;;9.80;4.90;;;;;;;21.30;68.63;101390.97;6276665;22;20022;-68
2022/10/02 11:35:18;;;;;;;6.82;2.15;;;;;;;20.98;70.68;101395.88;6277390;22;20022;-67
2022/10/02 11:38:11;;;;;;;12.55;3.85;;;;;;;21.12;70.44;101396.19;6232540;22;20026;-66
2022/10/02 11:40:57;;;;;;;8.50;2.97;;;;;;;21.29;70.50;101394.13;6275312;22;20024;-67
2022/10/02 11:43:30;;;;;;;9.02;1.88;;;;;;;20.93;70.23;101387.75;6250572;22;20446;-67
2022/10/02 11:46:20;;;;;;;6.13;1.40;;;;;;;20.95;70.13;101392.97;6275862;22;20024;-67
2022/10/02 11:48:58;;;;;;;7.22;1.90;;;;;;;21.21;69.56;101399.59;6250927;22;20082;-68
2022/10/02 11:51:52;;;;;;;8.32;1.95;;;;;;;20.62;71.08;101420.63;6277820;22;20023;-66
2022/10/02 11:54:53;;;;;;;7.97;2.25;;;;;;;20.18;77.67;101431.13;6250402;22;20020;-65
2022/10/02 11:57:28;;;;;;;6.07;1.73;;;;;;;19.35;83.91;101450.78;6276638;22;20027;-66
2022/10/02 12:00:13;;;;;;;10.88;2.63;;;;;;;19.42;86.58;101436.19;6250532;22;20019;-67
2022/10/02 12:02:50;;;;;;;6.97;2.60;;;;;;;19.60;87.40;101421.53;6225686;22;20011;-67
2022/10/02 12:05:41;;;;;;;7.75;1.92;;;;;;;19.68;87.92;101433.75;6247936;22;20016;-70
2022/10/02 12:08:33;;;;;;;8.43;2.80;;;;;;;19.93;87.11;101430.44;6277564;22;20308;-68
2022/10/02 12:11:20;;;;;;;9.50;3.40;;;;;;;20.22;86.20;101425.63;6277284;22;20026;-68
2022/10/02 12:14:05;;;;;;;9.15;2.20;;;;;;;20.20;85.89;101422.34;6279903;22;20008;-69
2022/10/02 12:16:48;;;;;;;8.40;2.22;;;;;;;20.49;84.87;101419.91;6251323;22;20071;-69
2022/10/02 12:19:15;;;;;;;7.57;2.38;;;;;;;20.56;84.87;101414.47;6252737;22;20018;-69
2022/10/02 12:28:12;;;;;;;7.65;2.33;;;;;;;21.00;80.36;101415.13;6250786;22;20015;-67
2022/10/02 12:30:46;;;;;;;6.35;2.00;;;;;;;20.71;82.75;101430.41;6278006;22;20019;-68
2022/10/02 12:33:31;;;;;;;7.63;1.88;;;;;;;19.99;86.62;101431.81;6252127;22;20030;-66
2022/10/02 12:36:05;;;;;;;5.22;1.75;;;;;;;19.76;89.98;101430.78;6252042;22;20020;-69
2022/10/02 12:38:48;;;;;;;6.45;1.42;;;;;;;19.40;91.24;101419.78;6277503;22;20019;-70
2022/10/02 12:41:53;;;;;;;8.95;2.17;;;;;;;19.48;91.89;101412.41;6252838;22;20016;-66
2022/10/02 12:44:43;;;;;;;8.45;1.60;;;;;;;19.63;91.02;101409.63;6277536;22;20443;-68